Time;durP1;ratioP1;P1;durP2;ratioP2;P2;SDS_P1;SDS_P2;PMS_P1;PMS_P2;Temp;Humidity;BMP_temperature;BMP_pressure;BME280_temperature;BME280_humidity;BME280_pressure;Samples;Min_cycle;Max_cycle;Signal;HPM_P1;HPM_P2
2023/04/10 00:01:16;;;;;;;0.50;0.50;;;;;;;24.92;33.16;99553.95;1863854;76;28299;-62
2023/04/10 00:04:05;;;;;;;0.40;0.40;;;;;;;24.93;33.14;99555.61;1861089;76;28234;-62
2023/04/10 00:06:54;;;;;;;0.40;0.40;;;;;;;24.94;33.13;99553.16;1868035;74;28104;-64
2023/04/10 00:09:43;;;;;;;0.30;0.30;;;;;;;24.93;33.17;99548.73;1874629;74;28145;-64
2023/04/10 00:12:31;;;;;;;0.40;0.40;;;;;;;24.94;33.13;99548.20;1852475;76;28176;-65
2023/04/10 00:15:19;;;;;;;0.50;0.50;;;;;;;24.97;33.08;99549.09;1860843;76;28141;-61
2023/04/10 00:18:08;;;;;;;0.40;0.40;;;;;;;24.97;33.09;99550.46;1867107;76;28138;-63
2023/04/10 00:20:56;;;;;;;0.40;0.40;;;;;;;24.96;33.09;99552.91;1861273;76;28162;-63
2023/04/10 00:23:45;;;;;;;0.37;0.37;;;;;;;24.94;33.14;99553.70;1873008;76;28161;-61
2023/04/10 00:26:34;;;;;;;0.50;0.50;;;;;;;24.93;33.09;99554.23;1873470;76;28072;-63
2023/04/10 00:29:22;;;;;;;0.47;0.47;;;;;;;24.92;33.15;99553.12;1857479;76;28155;-62
2023/04/10 00:32:11;;;;;;;0.90;0.55;;;;;;;24.95;33.10;99554.00;1890918;74;28091;-64
2023/04/10 00:35:00;;;;;;;1.30;0.50;;;;;;;24.91;33.14;99548.16;1899757;74;28449;-64
2023/04/10 00:37:49;;;;;;;0.45;0.45;;;;;;;24.89;33.23;99546.73;1870931;74;28291;-62
2023/04/10 00:40:37;;;;;;;0.50;0.50;;;;;;;24.89;33.24;99549.48;1876923;76;28091;-63
2023/04/10 00:43:26;;;;;;;0.35;0.35;;;;;;;24.88;33.21;99540.40;1886155;74;27983;-63
2023/04/10 00:46:15;;;;;;;0.60;0.60;;;;;;;24.94;33.14;99538.58;1854652;75;28149;-62
2023/04/10 00:49:04;;;;;;;0.50;0.50;;;;;;;24.92;33.15;99540.75;1823757;77;28192;-62
2023/04/10 00:51:54;;;;;;;0.35;0.35;;;;;;;24.93;33.11;99539.12;1811317;78;28594;-64
2023/04/10 00:54:43;;;;;;;0.40;0.40;;;;;;;24.92;33.06;99541.59;1825815;77;28078;-63
2023/04/10 00:57:32;;;;;;;0.50;0.50;;;;;;;24.91;33.08;99552.81;1818911;78;28333;-63
2023/04/10 01:00:21;;;;;;;0.50;0.50;;;;;;;24.90;33.08;99546.47;1831716;77;28040;-63
2023/04/10 01:03:11;;;;;;;0.37;0.37;;;;;;;24.90;33.08;99546.47;1843124;77;28090;-63
2023/04/10 01:06:18;;;;;;;0.40;0.40;;;;;;;24.90;33.04;99538.80;1820869;78;28260;-63
2023/04/10 01:09:12;;;;;;;0.43;0.43;;;;;;;24.91;33.04;99541.82;1817477;78;28269;-62
2023/04/10 01:12:06;;;;;;;0.42;0.42;;;;;;;24.87;33.09;99548.37;1799010;78;28130;-62
2023/04/10 01:15:01;;;;;;;0.50;0.43;;;;;;;24.89;33.07;99539.86;1796245;79;28224;-63
2023/04/10 01:18:04;;;;;;;0.40;0.40;;;;;;;24.90;33.02;99543.73;1885493;75;27977;-63
2023/04/10 01:20:53;;;;;;;0.50;0.50;;;;;;;24.88;33.04;99539.02;1861403;75;28135;-64
2023/04/10 01:24:03;;;;;;;0.33;0.33;;;;;;;24.86;33.05;99538.45;1845519;76;28040;-63
2023/04/10 01:27:25;;;;;;;0.30;0.30;;;;;;;24.87;33.06;99537.38;1856771;76;28173;-62
2023/04/10 01:30:16;;;;;;;0.65;0.42;;;;;;;24.84;33.07;99541.14;1841882;77;28194;-64
2023/04/10 01:33:08;;;;;;;0.30;0.30;;;;;;;24.82;33.11;99551.02;1859745;76;28252;-62
2023/04/10 01:35:59;;;;;;;0.60;0.60;;;;;;;24.82;33.09;99543.31;1855298;76;28166;-62
2023/04/10 01:38:50;;;;;;;0.50;0.50;;;;;;;24.85;33.04;99546.95;1844473;77;28107;-62
2023/04/10 01:41:41;;;;;;;0.47;0.47;;;;;;;24.81;33.07;99539.72;1858080;76;28603;-62
2023/04/10 01:44:33;;;;;;;0.30;0.30;;;;;;;24.84;33.04;99539.77;1883664;74;28043;-64
2023/04/10 01:47:24;;;;;;;0.40;0.40;;;;;;;24.84;33.04;99539.77;1877804;75;28145;-62
2023/04/10 01:50:13;;;;;;;0.40;0.40;;;;;;;24.83;33.05;99534.84;1880059;74;28091;-64
2023/04/10 01:53:05;;;;;;;0.30;0.30;;;;;;;24.84;33.02;99537.02;1859330;74;28188;-63
2023/04/10 01:55:54;;;;;;;1.70;0.40;;;;;;;24.84;32.99;99533.74;1840152;76;28221;-64
2023/04/10 01:58:43;;;;;;;0.47;0.47;;;;;;;24.83;33.02;99538.13;1848636;76;28663;-63
2023/04/10 02:01:32;;;;;;;0.70;0.60;;;;;;;24.84;32.98;99538.40;1822823;77;28332;-64
2023/04/10 02:04:20;;;;;;;0.47;0.47;;;;;;;24.84;32.98;99539.77;1842836;76;28129;-63
2023/04/10 02:07:17;;;;;;;0.40;0.40;;;;;;;24.81;32.99;99538.34;1855975;76;28129;-62
2023/04/10 02:10:15;;;;;;;0.35;0.35;;;;;;;24.82;32.97;99537.81;1855897;76;28077;-64
2023/04/10 02:13:09;;;;;;;0.50;0.50;;;;;;;24.80;33.03;99537.23;1825309;77;28223;-62
2023/04/10 02:16:00;;;;;;;0.40;0.40;;;;;;;24.81;33.01;99532.05;1805783;78;28798;-62
2023/04/10 02:18:50;;;;;;;0.50;0.50;;;;;;;24.81;32.99;99538.92;1825417;77;28389;-63
2023/04/10 02:21:41;;;;;;;0.50;0.50;;;;;;;24.85;32.89;99544.20;1837151;76;28122;-64
2023/04/10 02:24:29;;;;;;;0.30;0.30;;;;;;;24.81;32.99;99543.04;1829760;77;28125;-64
2023/04/10 02:27:33;;;;;;;0.45;0.45;;;;;;;24.79;33.00;99548.76;1824245;77;28086;-64
2023/04/10 02:30:23;;;;;;;0.40;0.40;;;;;;;24.79;33.01;99547.92;1841876;77;28158;-63
2023/04/10 02:33:11;;;;;;;0.45;0.45;;;;;;;24.78;33.01;99551.77;1839279;77;28152;-63
2023/04/10 02:36:01;;;;;;;0.70;0.50;;;;;;;24.79;32.99;99557.00;1822916;77;28125;-63
2023/04/10 02:38:49;;;;;;;1.20;0.40;;;;;;;24.77;32.97;99550.09;1805555;78;28304;-64
2023/04/10 02:41:37;;;;;;;0.50;0.50;;;;;;;24.75;33.01;99558.55;1823168;78;28396;-64
2023/04/10 02:44:26;;;;;;;0.40;0.40;;;;;;;24.78;33.01;99558.63;1811923;78;28287;-64
2023/04/10 02:47:15;;;;;;;0.40;0.40;;;;;;;24.77;33.00;99563.29;1778457;79;28301;-62
2023/04/10 02:50:06;;;;;;;0.95;0.55;;;;;;;24.78;32.98;99560.84;1792450;78;28165;-62
2023/04/10 02:52:57;;;;;;;0.50;0.50;;;;;;;24.74;33.02;99553.59;1804661;79;28772;-63
2023/04/10 02:55:45;;;;;;;0.40;0.40;;;;;;;24.77;32.98;99561.91;1792487;78;28278;-63
2023/04/10 02:58:34;;;;;;;0.57;0.57;;;;;;;24.80;32.92;99571.58;1810152;78;28395;-63
2023/04/10 03:01:23;;;;;;;0.40;0.40;;;;;;;24.77;32.95;99572.91;1842607;76;28045;-62
2023/04/10 03:04:12;;;;;;;0.47;0.47;;;;;;;24.77;32.96;99577.02;1837838;76;28111;-62
2023/04/10 03:07:01;;;;;;;0.30;0.30;;;;;;;24.78;32.94;99582.83;1845980;76;28179;-62
2023/04/10 03:09:50;;;;;;;0.35;0.35;;;;;;;24.79;32.91;99580.89;1827536;76;28185;-62
2023/04/10 03:12:39;;;;;;;0.42;0.42;;;;;;;24.81;32.91;99587.00;1849139;76;28060;-64
2023/04/10 03:15:27;;;;;;;0.40;0.40;;;;;;;24.77;32.95;99576.19;1869567;75;28199;-62
2023/04/10 03:18:17;;;;;;;0.45;0.45;;;;;;;24.77;32.92;99578.40;1859021;75;28229;-62
2023/04/10 03:21:07;;;;;;;0.50;0.50;;;;;;;24.76;32.95;99584.99;1825955;77;28193;-63
2023/04/10 03:23:55;;;;;;;0.40;0.40;;;;;;;24.75;33.13;99591.52;1789067;78;28160;-63
2023/04/10 03:26:44;;;;;;;1.00;0.50;;;;;;;24.75;33.13;99591.52;1811237;78;28315;-62
2023/04/10 03:29:33;;;;;;;0.50;0.50;;;;;;;24.76;32.93;99585.49;1806686;78;28117;-63
2023/04/10 03:32:21;;;;;;;0.40;0.40;;;;;;;24.77;32.91;99585.80;1821312;78;28154;-63
2023/04/10 03:35:10;;;;;;;0.50;0.50;;;;;;;24.77;32.91;99581.14;1795728;79;28212;-62
2023/04/10 03:37:59;;;;;;;0.50;0.50;;;;;;;24.78;32.89;99582.83;1833762;76;28217;-62
2023/04/10 03:40:47;;;;;;;0.40;0.40;;;;;;;24.79;32.86;99583.64;1820939;77;28190;-62
2023/04/10 03:43:36;;;;;;;0.60;0.60;;;;;;;24.76;32.84;99578.12;1854655;75;28154;-63
2023/04/10 03:46:25;;;;;;;0.30;0.30;;;;;;;24.76;32.88;99580.00;1856203;75;28104;-62
2023/04/10 03:49:15;;;;;;;0.30;0.30;;;;;;;24.76;32.88;99585.49;1868626;75;28092;-62
2023/04/10 03:52:03;;;;;;;0.50;0.50;;;;;;;24.74;32.88;99585.19;1838067;77;28138;-62
2023/04/10 03:54:52;;;;;;;0.40;0.40;;;;;;;24.76;32.86;99586.36;1837915;76;28662;-62
2023/04/10 03:57:42;;;;;;;0.30;0.30;;;;;;;24.79;32.83;99590.50;1847400;76;28206;-62
2023/04/10 04:00:31;;;;;;;0.50;0.50;;;;;;;24.76;32.83;99588.23;1794690;78;28181;-63
2023/04/10 04:03:21;;;;;;;0.40;0.40;;;;;;;24.76;32.81;99584.99;1804822;78;28210;-62
2023/04/10 04:06:11;;;;;;;0.47;0.47;;;;;;;24.74;32.85;99585.72;1793714;79;28264;-62
2023/04/10 04:09:13;;;;;;;0.40;0.40;;;;;;;24.75;32.82;99586.03;1769342;78;28292;-62
2023/04/10 04:12:15;;;;;;;0.40;0.40;;;;;;;24.74;32.85;99583.81;1806639;78;28317;-63
2023/04/10 04:15:22;;;;;;;0.50;0.50;;;;;;;24.71;32.89;99586.23;1793732;78;28267;-63
2023/04/10 04:18:24;;;;;;;0.47;0.47;;;;;;;24.69;32.88;99590.58;1800718;78;28283;-62
2023/04/10 04:21:14;;;;;;;0.40;0.40;;;;;;;24.71;32.89;99588.41;1780474;79;28898;-63
2023/04/10 04:24:23;;;;;;;0.40;0.40;;;;;;;24.69;32.90;99593.33;1796796;78;28256;-64
2023/04/10 04:27:20;;;;;;;0.35;0.35;;;;;;;24.71;32.86;99602.72;1792594;79;28350;-63
2023/04/10 04:30:11;;;;;;;0.45;0.45;;;;;;;24.73;32.86;99599.17;1808781;78;28288;-63
2023/04/10 04:33:07;;;;;;;0.50;0.50;;;;;;;24.70;32.90;99601.03;1790083;78;28310;-63
2023/04/10 04:35:57;;;;;;;0.50;0.50;;;;;;;24.69;32.93;99605.69;1778753;79;28502;-63
2023/04/10 04:38:56;;;;;;;0.40;0.40;;;;;;;24.69;32.88;99602.94;1772293;79;28301;-62
2023/04/10 04:42:01;;;;;;;0.40;0.40;;;;;;;24.67;32.87;99602.36;1798957;79;28267;-62
2023/04/10 04:44:51;;;;;;;0.60;0.60;;;;;;;24.68;32.88;99604.04;1813885;78;28142;-65
2023/04/10 04:47:50;;;;;;;0.40;0.40;;;;;;;24.67;32.89;99607.84;1812116;78;28326;-61
2023/04/10 04:50:43;;;;;;;0.40;0.40;;;;;;;24.69;32.88;99612.55;1788777;79;28332;-63
2023/04/10 04:53:36;;;;;;;0.47;0.47;;;;;;;24.71;32.85;99613.70;1790477;78;28407;-62
2023/04/10 04:56:26;;;;;;;0.37;0.37;;;;;;;24.71;32.82;99614.52;1791941;79;28268;-62
2023/04/10 04:59:22;;;;;;;0.40;0.40;;;;;;;24.71;32.81;99610.95;1793238;79;28239;-63
2023/04/10 05:02:15;;;;;;;0.42;0.35;;;;;;;24.69;32.87;99612.55;1809035;78;28344;-63
2023/04/10 05:05:24;;;;;;;0.53;0.53;;;;;;;24.72;32.83;99607.95;1804501;79;28310;-63
2023/04/10 05:08:14;;;;;;;0.57;0.57;;;;;;;24.70;32.84;99612.02;1797151;79;28378;-63
2023/04/10 05:11:16;;;;;;;0.50;0.50;;;;;;;24.69;32.85;99614.49;1794520;79;28275;-62
2023/04/10 05:14:13;;;;;;;0.40;0.40;;;;;;;24.70;32.84;99623.02;1809250;79;28487;-62
2023/04/10 05:17:09;;;;;;;0.53;0.53;;;;;;;24.71;32.82;99620.58;1780481;78;28232;-62
2023/04/10 05:20:09;;;;;;;0.90;0.90;;;;;;;24.74;32.76;99626.92;1815227;78;28071;-62
2023/04/10 05:23:18;;;;;;;1.20;1.10;;;;;;;24.57;30.28;99626.06;1730836;81;28960;-64
2023/04/10 05:26:17;;;;;;;0.70;0.70;;;;;;;24.42;30.35;99632.07;1680195;82;28727;-64
2023/04/10 05:29:16;;;;;;;0.72;0.57;;;;;;;24.40;31.07;99628.73;1845990;76;28186;-64
2023/04/10 05:32:06;;;;;;;0.57;0.57;;;;;;;24.44;31.37;99625.79;1846740;75;28146;-64
2023/04/10 05:34:57;;;;;;;1.90;0.80;;;;;;;24.46;31.43;99632.41;1846326;77;28126;-64
2023/04/10 05:37:53;;;;;;;0.60;0.60;;;;;;;24.46;31.50;99629.66;1859901;75;28258;-64
2023/04/10 05:40:45;;;;;;;0.50;0.50;;;;;;;24.49;31.49;99631.39;1867957;76;28059;-64
2023/04/10 05:43:35;;;;;;;0.90;0.90;;;;;;;24.51;31.46;99630.61;1854765;76;28259;-62
2023/04/10 05:46:33;;;;;;;0.90;0.90;;;;;;;24.43;29.65;99631.54;1842721;75;28277;-61
2023/04/10 05:49:36;;;;;;;1.00;1.00;;;;;;;24.36;29.29;99626.19;1848642;77;28108;-60
2023/04/10 05:52:26;;;;;;;1.17;1.02;;;;;;;24.33;29.58;99629.41;1866095;76;28703;-59
2023/04/10 05:55:25;;;;;;;1.10;0.70;;;;;;;24.33;29.96;99631.31;1790493;76;28373;-58
2023/04/10 05:58:18;;;;;;;0.53;0.53;;;;;;;24.32;30.27;99636.53;1863287;76;28174;-61
2023/04/10 06:01:23;;;;;;;0.50;0.50;;;;;;;24.32;30.48;99636.53;1750991;80;28382;-59
2023/04/10 06:04:13;;;;;;;0.65;0.65;;;;;;;24.31;30.63;99641.18;1861680;76;28179;-60
2023/04/10 06:07:02;;;;;;;0.60;0.60;;;;;;;24.28;30.76;99641.66;1856110;75;28132;-60
2023/04/10 06:09:52;;;;;;;0.72;0.72;;;;;;;24.28;30.87;99641.66;1869786;75;28194;-60
2023/04/10 06:12:40;;;;;;;0.62;0.62;;;;;;;24.29;30.98;99646.08;1886030;75;28107;-60
2023/04/10 06:15:30;;;;;;;0.70;0.70;;;;;;;24.27;31.01;99653.70;1861189;76;28057;-62
2023/04/10 06:18:19;;;;;;;0.70;0.70;;;;;;;24.28;31.06;99654.54;1853027;77;28073;-60
2023/04/10 06:21:09;;;;;;;0.72;0.72;;;;;;;24.26;31.09;99646.55;1854213;76;28197;-61
2023/04/10 06:23:59;;;;;;;0.62;0.62;;;;;;;24.26;31.13;99653.42;1879828;75;28155;-62
2023/04/10 06:26:48;;;;;;;0.70;0.70;;;;;;;24.26;31.21;99649.83;1863276;75;30286;-60
2023/04/10 06:29:36;;;;;;;0.60;0.60;;;;;;;24.29;31.24;99655.69;1863875;75;28169;-62
2023/04/10 06:32:24;;;;;;;0.53;0.53;;;;;;;24.29;31.23;99658.44;1861861;76;28111;-59
2023/04/10 06:35:13;;;;;;;0.70;0.70;;;;;;;24.31;31.29;99662.30;1880938;75;28099;-62
2023/04/10 06:38:02;;;;;;;0.70;0.70;;;;;;;24.31;31.27;99654.91;1867376;75;28016;-60
2023/04/10 06:40:52;;;;;;;0.57;0.57;;;;;;;24.32;31.36;99654.38;1887896;75;28005;-59
2023/04/10 06:43:40;;;;;;;0.60;0.60;;;;;;;24.25;31.42;99646.81;1878452;75;28055;-61
2023/04/10 06:46:28;;;;;;;0.55;0.55;;;;;;;24.28;31.39;99655.38;1857671;76;38604;-59
2023/04/10 06:49:16;;;;;;;0.60;0.60;;;;;;;24.28;31.46;99658.66;1850007;76;28061;-60
2023/04/10 06:52:06;;;;;;;0.40;0.40;;;;;;;24.26;31.53;99658.91;1855540;75;27971;-62
2023/04/10 06:54:55;;;;;;;0.50;0.50;;;;;;;24.28;31.55;99660.03;1845336;75;28208;-61
2023/04/10 06:57:44;;;;;;;0.60;0.60;;;;;;;24.31;31.60;99660.40;1834663;75;28434;-61
2023/04/10 07:00:32;;;;;;;0.60;0.60;;;;;;;24.28;31.63;99662.24;1854257;75;28197;-62
2023/04/10 07:03:21;;;;;;;0.70;0.70;;;;;;;24.29;31.65;99663.92;1871614;75;27976;-63
2023/04/10 07:06:11;;;;;;;0.50;0.50;;;;;;;24.30;31.71;99658.72;1838165;75;28088;-62
2023/04/10 07:08:59;;;;;;;0.60;0.60;;;;;;;24.30;31.76;99643.61;1865708;75;28161;-62
2023/04/10 07:11:48;;;;;;;0.60;0.60;;;;;;;24.29;31.80;99646.08;1873741;75;27983;-63
2023/04/10 07:14:36;;;;;;;0.42;0.42;;;;;;;24.31;31.82;99654.91;1842012;77;28676;-61
2023/04/10 07:17:25;;;;;;;0.50;0.50;;;;;;;24.30;31.85;99649.11;1872445;75;28181;-63
2023/04/10 07:20:13;;;;;;;0.70;0.70;;;;;;;24.30;31.86;99644.98;1881956;75;28091;-63
2023/04/10 07:23:02;;;;;;;0.70;0.70;;;;;;;24.30;31.88;99644.14;1886079;75;28080;-63
2023/04/10 07:25:50;;;;;;;0.60;0.60;;;;;;;24.31;31.87;99638.44;1855969;77;28100;-61
2023/04/10 07:28:39;;;;;;;0.60;0.60;;;;;;;24.32;31.90;99642.02;1863777;76;28453;-61
2023/04/10 07:31:27;;;;;;;0.70;0.70;;;;;;;24.30;31.95;99642.24;1867985;76;28198;-63
2023/04/10 07:34:15;;;;;;;0.62;0.62;;;;;;;24.30;32.00;99647.73;1868582;76;28118;-64
2023/04/10 07:37:04;;;;;;;0.57;0.57;;;;;;;24.29;32.03;99638.38;1853101;75;28148;-62
2023/04/10 07:39:52;;;;;;;0.60;0.60;;;;;;;24.30;32.04;99640.87;1832674;77;28215;-42
2023/04/10 07:42:40;;;;;;;0.53;0.53;;;;;;;24.32;32.07;99643.39;1855035;75;28527;-42
2023/04/10 07:45:28;;;;;;;0.50;0.50;;;;;;;24.32;32.08;99640.64;1855504;75;28166;-44
2023/04/10 07:48:17;;;;;;;1.45;0.70;;;;;;;24.35;32.09;99637.39;1845461;76;28300;-42
2023/04/10 07:51:08;;;;;;;0.45;0.45;;;;;;;24.32;32.13;99636.53;1852845;75;28150;-42
2023/04/10 07:53:56;;;;;;;2.30;0.50;;;;;;;24.34;32.10;99639.30;1860178;75;28670;-43
2023/04/10 07:56:45;;;;;;;0.80;0.80;;;;;;;24.34;32.11;99640.67;1860269;75;28137;-43
2023/04/10 07:59:33;;;;;;;0.63;0.63;;;;;;;24.34;32.13;99635.18;1871032;75;28056;-44
2023/04/10 08:02:21;;;;;;;0.53;0.53;;;;;;;24.33;32.12;99640.39;1862423;75;28101;-46
2023/04/10 08:05:10;;;;;;;0.80;0.80;;;;;;;24.34;32.15;99642.61;1835278;77;28165;-44
2023/04/10 08:07:59;;;;;;;1.40;0.60;;;;;;;24.33;32.14;99644.52;1840354;76;28158;-44
2023/04/10 08:10:47;;;;;;;0.50;0.50;;;;;;;24.33;32.20;99643.14;1865207;76;28243;-43
2023/04/10 08:13:36;;;;;;;0.60;0.60;;;;;;;24.35;32.20;99635.48;1853512;76;28053;-44
2023/04/10 08:16:26;;;;;;;0.57;0.57;;;;;;;24.34;32.20;99637.12;1855662;76;28052;-44
2023/04/10 08:19:14;;;;;;;0.60;0.60;;;;;;;24.33;32.24;99640.39;1812187;78;28091;-44
2023/04/10 08:22:05;;;;;;;1.47;0.80;;;;;;;24.33;32.27;99637.65;1794024;78;32214;-43
2023/04/10 08:24:53;;;;;;;0.57;0.57;;;;;;;24.34;32.28;99642.05;1816306;77;28101;-43
2023/04/10 08:27:42;;;;;;;0.50;0.50;;;;;;;24.33;32.28;99645.05;1810589;78;28272;-44
2023/04/10 08:30:30;;;;;;;0.60;0.60;;;;;;;24.33;32.34;99631.31;1794525;79;28341;-43
2023/04/10 08:33:19;;;;;;;0.60;0.60;;;;;;;24.32;32.34;99631.84;1812380;78;28280;-42
2023/04/10 08:36:09;;;;;;;0.50;0.50;;;;;;;24.33;32.35;99628.57;1809024;79;28220;-44
2023/04/10 08:38:58;;;;;;;0.50;0.50;;;;;;;24.34;32.34;99629.69;1812768;78;28283;-44
2023/04/10 08:41:46;;;;;;;0.68;0.68;;;;;;;24.34;32.37;99628.31;1790779;79;28299;-42
2023/04/10 08:44:36;;;;;;;0.55;0.55;;;;;;;24.32;32.44;99631.84;1808935;79;30281;-42
2023/04/10 08:47:27;;;;;;;0.60;0.60;;;;;;;24.33;32.43;99628.04;1818890;78;28131;-42
2023/04/10 08:50:18;;;;;;;0.70;0.70;;;;;;;24.31;32.45;99631.57;1813046;78;28103;-43
2023/04/10 08:53:09;;;;;;;0.55;0.55;;;;;;;24.31;32.47;99632.94;1907269;74;28042;-43
2023/04/10 08:55:58;;;;;;;0.70;0.70;;;;;;;24.31;32.47;99632.10;1894925;74;27987;-43
2023/04/10 08:58:46;;;;;;;0.47;0.47;;;;;;;24.30;32.52;99624.92;1886519;75;28099;-45
2023/04/10 09:01:35;;;;;;;0.60;0.60;;;;;;;24.32;32.50;99625.55;1799884;78;28272;-43
2023/04/10 09:04:25;;;;;;;0.60;0.60;;;;;;;24.31;32.56;99621.13;1861769;76;28126;-43
2023/04/10 09:07:13;;;;;;;0.55;0.55;;;;;;;24.30;32.59;99625.77;1876529;75;28132;-42
2023/04/10 09:10:02;;;;;;;0.55;0.55;;;;;;;24.29;32.60;99626.87;1888203;74;30953;-43
2023/04/10 09:12:52;;;;;;;0.50;0.50;;;;;;;24.31;32.60;99623.87;1861696;76;28183;-42
2023/04/10 09:15:58;;;;;;;0.63;0.63;;;;;;;24.31;32.62;99622.49;1856573;76;28075;-42
2023/04/10 09:18:51;;;;;;;0.50;0.50;;;;;;;24.31;32.66;99621.13;1879574;74;28066;-42
2023/04/10 09:21:39;;;;;;;0.37;0.37;;;;;;;24.30;32.68;99618.06;1871120;75;28593;-41
2023/04/10 09:24:28;;;;;;;0.50;0.50;;;;;;;24.30;32.68;99613.42;1870598;74;28100;-41
2023/04/10 09:27:37;;;;;;;0.45;0.45;;;;;;;24.30;32.68;99617.53;1873494;75;28051;-42
2023/04/10 09:30:40;;;;;;;0.40;0.40;;;;;;;24.31;32.72;99612.88;1850791;76;28268;-44
2023/04/10 09:33:29;;;;;;;0.50;0.50;;;;;;;24.30;32.74;99608.45;1817492;77;28184;-42
2023/04/10 09:36:17;;;;;;;0.60;0.60;;;;;;;24.28;32.76;99607.88;1835742;77;28133;-43
2023/04/10 09:39:06;;;;;;;0.55;0.50;;;;;;;24.29;32.78;99602.16;1875897;75;28157;-43
2023/04/10 09:41:55;;;;;;;0.50;0.50;;;;;;;24.30;32.76;99602.97;1850972;76;28215;-44
2023/04/10 09:44:43;;;;;;;1.50;0.50;;;;;;;24.34;32.65;99602.23;1884019;74;28170;-44
2023/04/10 09:47:32;;;;;;;0.40;0.40;;;;;;;24.35;32.61;99591.56;1880462;74;28068;-44
2023/04/10 09:50:23;;;;;;;0.60;0.60;;;;;;;24.35;32.65;99591.56;1883567;74;31152;-43
2023/04/10 09:53:20;;;;;;;0.50;0.50;;;;;;;24.35;32.63;99584.70;1852734;74;28182;-45
2023/04/10 09:56:09;;;;;;;0.40;0.40;;;;;;;24.34;32.67;99576.72;1875834;75;28099;-45
2023/04/10 09:59:03;;;;;;;0.40;0.40;;;;;;;24.33;32.67;99572.29;1877047;75;28157;-43
2023/04/10 10:01:51;;;;;;;0.45;0.45;;;;;;;24.35;32.66;99568.22;1864550;76;28117;-42
2023/04/10 10:04:41;;;;;;;0.60;0.60;;;;;;;24.34;32.69;99571.23;1894261;74;28095;-42
2023/04/10 10:07:31;;;;;;;0.50;0.50;;;;;;;24.33;32.75;99569.55;1826064;76;28088;-43
2023/04/10 10:10:20;;;;;;;0.50;0.50;;;;;;;24.34;32.76;99569.85;1882364;74;28133;-41
2023/04/10 10:13:10;;;;;;;0.57;0.57;;;;;;;24.36;32.76;99567.16;1815147;77;28288;-45
2023/04/10 10:16:01;;;;;;;0.50;0.50;;;;;;;24.36;32.79;99563.05;1863748;76;28143;-44
2023/04/10 10:18:52;;;;;;;0.50;0.50;;;;;;;24.38;32.78;99560.88;1855480;76;28126;-43
2023/04/10 10:21:44;;;;;;;0.53;0.53;;;;;;;24.36;32.82;99556.17;1883534;74;28014;-43
2023/04/10 10:24:35;;;;;;;0.65;0.65;;;;;;;24.37;32.81;99552.34;1886367;74;28094;-43
2023/04/10 10:27:26;;;;;;;0.30;0.30;;;;;;;24.37;32.84;99555.61;1851111;76;28229;-44
2023/04/10 10:30:16;;;;;;;0.60;0.60;;;;;;;24.37;32.83;99544.63;1869468;76;28043;-42
2023/04/10 10:33:07;;;;;;;0.37;0.37;;;;;;;24.37;32.87;99545.47;1876703;75;28124;-45
2023/04/10 10:35:58;;;;;;;0.55;0.55;;;;;;;24.37;32.86;99544.09;1802437;78;28405;-42
2023/04/10 10:39:05;;;;;;;0.60;0.60;;;;;;;24.38;32.89;99546.31;1873714;74;28136;-43
2023/04/10 10:42:05;;;;;;;0.60;0.60;;;;;;;24.36;32.89;99538.33;1842580;74;28123;-44
2023/04/10 10:45:09;;;;;;;0.40;0.40;;;;;;;24.33;32.95;99534.70;1857942;76;28226;-44
2023/04/10 10:47:57;;;;;;;0.40;0.40;;;;;;;24.32;32.96;99523.97;1870541;76;28283;-44
2023/04/10 10:50:57;;;;;;;0.50;0.50;;;;;;;24.32;33.01;99524.78;1885312;74;28495;-44
2023/04/10 10:53:46;;;;;;;0.42;0.42;;;;;;;24.36;32.95;99522.39;1843190;75;28224;-42
2023/04/10 10:56:35;;;;;;;0.50;0.50;;;;;;;24.34;32.98;99523.98;1862887;75;28255;-42
2023/04/10 10:59:49;;;;;;;0.50;0.50;;;;;;;24.35;33.01;99522.08;1860533;75;31122;-42
2023/04/10 11:02:37;;;;;;;0.50;0.50;;;;;;;24.35;33.00;99516.06;1872795;75;28185;-43
2023/04/10 11:05:57;;;;;;;0.50;0.50;;;;;;;24.33;33.06;99510.52;1850509;76;28240;-46
2023/04/10 11:08:45;;;;;;;0.60;0.60;;;;;;;24.37;33.03;99511.69;1850655;76;28299;-42
2023/04/10 11:11:36;;;;;;;1.20;0.40;;;;;;;24.34;33.09;99506.14;1844773;77;28130;-43
2023/04/10 11:14:26;;;;;;;0.50;0.50;;;;;;;24.33;33.06;99493.52;1882595;75;28109;-44
2023/04/10 11:17:18;;;;;;;0.45;0.45;;;;;;;24.37;33.04;99502.08;1848262;77;28056;-43
2023/04/10 11:20:07;;;;;;;0.50;0.50;;;;;;;24.38;33.03;99497.73;1861907;76;28088;-44
2023/04/10 11:23:12;;;;;;;0.55;0.55;;;;;;;24.35;33.10;99494.09;1866039;76;28051;-46
2023/04/10 11:26:00;;;;;;;0.47;0.47;;;;;;;24.36;33.10;99494.41;1843959;77;28104;-43
2023/04/10 11:28:49;;;;;;;0.50;0.50;;;;;;;24.38;33.09;99492.77;1861887;76;28056;-45
2023/04/10 11:31:37;;;;;;;0.60;0.50;;;;;;;24.38;33.10;99496.36;1882476;75;28049;-43
2023/04/10 11:34:32;;;;;;;2.30;0.60;;;;;;;24.36;33.15;99495.78;1856711;75;28025;-44
2023/04/10 11:37:24;;;;;;;0.50;0.50;;;;;;;24.39;33.05;99495.27;1845950;75;28168;-46
2023/04/10 11:40:14;;;;;;;0.50;0.50;;;;;;;24.40;33.01;99494.20;1862843;75;28632;-43
2023/04/10 11:43:14;;;;;;;0.55;0.55;;;;;;;24.40;32.97;99490.61;1883250;75;28068;-42
2023/04/10 11:46:04;;;;;;;0.53;0.53;;;;;;;24.41;33.07;99499.16;1843522;76;28117;-43
2023/04/10 11:49:01;;;;;;;0.50;0.50;;;;;;;24.39;33.02;99496.63;1861940;75;28111;-41
2023/04/10 11:51:51;;;;;;;0.60;0.60;;;;;;;24.41;32.97;99499.96;1835477;75;28130;-43
2023/04/10 11:54:43;;;;;;;0.70;0.60;;;;;;;24.39;33.06;99496.63;1895547;74;28130;-41
2023/04/10 11:57:35;;;;;;;0.50;0.50;;;;;;;24.39;32.94;99488.40;1878544;75;28220;-42
2023/04/10 12:00:23;;;;;;;0.30;0.30;;;;;;;24.39;33.08;99477.95;1876768;75;28166;-42
2023/04/10 12:03:11;;;;;;;0.50;0.50;;;;;;;24.40;32.96;99474.14;1868396;75;28493;-44
2023/04/10 12:06:00;;;;;;;0.60;0.60;;;;;;;24.39;32.85;99456.83;1887732;74;28108;-42
2023/04/10 12:08:50;;;;;;;0.50;0.50;;;;;;;24.39;33.02;99452.70;1881379;75;28134;-43
2023/04/10 12:11:38;;;;;;;0.60;0.60;;;;;;;24.40;33.06;99444.77;1884294;75;28822;-44
2023/04/10 12:14:32;;;;;;;0.50;0.50;;;;;;;24.41;33.05;99442.88;1869393;75;28082;-43
2023/04/10 12:17:21;;;;;;;0.50;0.50;;;;;;;24.42;33.00;99436.28;1866777;75;28209;-42
2023/04/10 12:20:10;;;;;;;0.45;0.45;;;;;;;24.41;33.03;99445.05;1878966;75;28059;-42
2023/04/10 12:23:01;;;;;;;2.13;0.57;;;;;;;24.43;33.03;99440.70;1884460;75;28055;-41
2023/04/10 12:25:50;;;;;;;0.50;0.50;;;;;;;24.42;33.07;99434.91;1883648;75;28121;-42
2023/04/10 12:28:40;;;;;;;0.35;0.35;;;;;;;24.43;33.08;99438.80;1883693;74;28063;-41
2023/04/10 12:31:33;;;;;;;0.50;0.50;;;;;;;24.44;32.92;99428.63;1883729;74;27974;-42
2023/04/10 12:34:21;;;;;;;0.40;0.40;;;;;;;24.44;32.85;99429.99;1884495;74;28105;-41
2023/04/10 12:37:10;;;;;;;0.40;0.40;;;;;;;24.43;32.95;99420.11;1868146;74;28031;-44
2023/04/10 12:40:07;;;;;;;0.33;0.33;;;;;;;24.45;32.94;99425.65;1892891;74;28055;-43
2023/04/10 12:42:55;;;;;;;0.42;0.42;;;;;;;24.45;32.86;99424.81;1868283;75;28309;-43
2023/04/10 12:45:45;;;;;;;0.40;0.40;;;;;;;24.46;32.82;99411.35;1885413;74;28086;-42
2023/04/10 12:48:33;;;;;;;0.30;0.30;;;;;;;24.45;32.83;99414.66;1869637;75;28425;-43
2023/04/10 12:51:43;;;;;;;0.30;0.30;;;;;;;24.46;32.79;99410.82;1864912;74;28145;-42
2023/04/10 12:54:36;;;;;;;0.47;0.47;;;;;;;24.46;32.83;99410.82;1873181;74;28184;-42
2023/04/10 12:57:27;;;;;;;0.57;0.57;;;;;;;24.43;32.85;99419.58;1879784;74;28252;-43
2023/04/10 13:00:20;;;;;;;0.40;0.40;;;;;;;24.46;32.67;99412.73;1886838;74;28035;-42
2023/04/10 13:03:09;;;;;;;0.30;0.30;;;;;;;24.47;32.44;99401.52;1899648;74;28184;-44
2023/04/10 13:05:58;;;;;;;0.50;0.50;;;;;;;24.49;32.25;99407.59;1883874;74;28099;-44
2023/04/10 13:08:47;;;;;;;0.33;0.33;;;;;;;24.49;32.16;99402.09;1856277;75;28185;-45
2023/04/10 13:11:35;;;;;;;0.40;0.40;;;;;;;24.49;32.03;99404.84;1878927;75;28245;-44
2023/04/10 13:14:23;;;;;;;0.37;0.37;;;;;;;24.51;31.65;99399.92;1883983;75;28105;-45
2023/04/10 13:17:12;;;;;;;0.47;0.47;;;;;;;24.53;31.69;99399.66;1892066;74;28116;-42
2023/04/10 13:20:00;;;;;;;0.40;0.40;;;;;;;24.52;31.12;99380.17;1875283;75;28066;-43
2023/04/10 13:22:49;;;;;;;0.33;0.33;;;;;;;24.52;31.23;99383.75;1875920;75;28064;-42
2023/04/10 13:25:39;;;;;;;0.70;0.62;;;;;;;24.53;31.32;99383.19;1874719;74;28238;-44
2023/04/10 13:28:27;;;;;;;0.28;0.28;;;;;;;24.52;30.93;99381.01;1873251;74;33299;-44